WetterOnline ( https://www.wetteronline.de )

Wetter aktuell Telis

Aktuelles Wetter: Capo Bellavista (150m)

6-stündlich | Neueste Meldungen
Ortszeit Temperatur Wetter
Di, 12.11. 1:00 12.2° C bedeckt
Mo, 11.11. 19:00 13.4° C Regen
Mo, 11.11. 13:00 13.4° C leichter Regen
Mo, 11.11. 7:00 11.2° C wolkig
Mo, 11.11. 1:00 12.0° C bewölkt
So, 10.11. 19:00 12.2° C leichter Regen
So, 10.11. 13:00 11.6° C leichter Regen
So, 10.11. 7:00 12.0° C leicht bewölkt
Ortszeit Temperatur Wetter
Di, 12.11. 2:00 12.6° C bedeckt
Di, 12.11. 1:55 13° C bedeckt
Di, 12.11. 1:00 12.2° C bedeckt
Di, 12.11. 0:55 12° C bedeckt
Di, 12.11. 0:00 12.0° C wolkig
Mo, 11.11. 23:55 12° C leicht bewölkt
Mo, 11.11. 23:00 11.9° C bedeckt, nach Regen
Mo, 11.11. 22:55 12° C bedeckt
Mo, 11.11. 22:00 11.8° C leichter Regen
Ortszeit Relative Feuchte Sichtweite
Di, 12.11. 1:00 80% 20 km
Mo, 11.11. 19:00 96% 10 km
Mo, 11.11. 13:00 85% 6 km
Mo, 11.11. 7:00 95% 20 km
Mo, 11.11. 1:00 87% 20 km
So, 10.11. 19:00 94% 18 km
So, 10.11. 13:00 95% 8 km
So, 10.11. 7:00 45% 20 km
Ortszeit Relative Feuchte Sichtweite
Di, 12.11. 2:00 80% 20 km
Di, 12.11. 1:55 77% >10 km
Di, 12.11. 1:00 80% 20 km
Di, 12.11. 0:55 82% >10 km
Di, 12.11. 0:00 83% 20 km
Mo, 11.11. 23:55 82% >10 km
Mo, 11.11. 23:00 89% 20 km
Mo, 11.11. 22:55 88% >10 km
Mo, 11.11. 22:00 90% 20 km
Ortszeit Niederschlagsmenge Niederschlagsart
Di, 12.11. 1:00 4 l/m2 in 6 Std. Regen
Mo, 11.11. 19:00 0.0 l/m2 in 12 Std. Regen
Mo, 11.11. 13:00 2 l/m2 in 6 Std. Regen
Mo, 11.11. 7:00 3 l/m2 in 12 Std. Regen
Mo, 11.11. 1:00 0.6 l/m2 in 6 Std. Regen
So, 10.11. 19:00 0.8 l/m2 in 12 Std. Regen
So, 10.11. 13:00 0.2 l/m2 in 6 Std. Regen
So, 10.11. 7:00 0.0 l/m2 in 12 Std. -
Ortszeit Niederschlagsmenge Niederschlagsart
Di, 12.11. 2:00 keine Meldung -
Di, 12.11. 1:55 keine Meldung -
Di, 12.11. 1:00 keine Meldung -
Di, 12.11. 0:55 keine Meldung -
Di, 12.11. 0:00 keine Meldung -
Mo, 11.11. 23:55 keine Meldung -
Mo, 11.11. 23:00 keine Meldung -
Mo, 11.11. 22:55 keine Meldung -
Mo, 11.11. 22:00 keine Meldung -
Ortszeit Stärke Spitze Richtung
km/h Bft. km/h Grad Sektor
Di, 12.11. 1:00 24 4 - 320° NW
Mo, 11.11. 19:00 13 3 - 300° NW
Mo, 11.11. 13:00 13 3 - 210° SW
Mo, 11.11. 7:00 9 2 - 290° W
Mo, 11.11. 1:00 19 3 - 230° SW
So, 10.11. 19:00 15 3 - 280° W
So, 10.11. 13:00 15 3 - 230° SW
So, 10.11. 7:00 11 2 - 300° NW
Ortszeit Stärke Spitze Richtung
km/h Bft. km/h Grad Sektor
Di, 12.11. 2:00 22 4 - 330° NW
Di, 12.11. 1:55 22 4 - 330° NW
Di, 12.11. 1:00 24 4 - 320° NW
Di, 12.11. 0:55 24 4 - 320° NW
Di, 12.11. 0:00 26 4 - 320° NW
Mo, 11.11. 23:55 26 4 - 320° NW
Mo, 11.11. 23:00 28 4 - 320° NW
Mo, 11.11. 22:55 28 4 - 320° NW
Mo, 11.11. 22:00 28 4 - 320° NW
Ortszeit Untergrenze Bedeckung Gattung
total tief tief mittel hoch
Di, 12.11. 1:00 1200 m 8/8 8/8 Cu - -
Mo, 11.11. 19:00 750 m 8/8 8/8 Cu - -
Mo, 11.11. 13:00 300 m 8/8 5/8 Cu Ns -
Mo, 11.11. 7:00 900 m 8/8 5/8 Cu As Ci
Mo, 11.11. 1:00 1050 m 8/8 3/8 Cu As -
So, 10.11. 19:00 600 m 8/8 6/8 Cu As Ci
So, 10.11. 13:00 1050 m 8/8 2/8 Cu As -
So, 10.11. 7:00 3000 m 5/8 3/8 - Ac Ci
Ortszeit Bedeckungsgrad in Achtel und Wolkenuntergrenze
Di, 12.11. 2:00 3(900m) 8(1200m)
Di, 12.11. 1:55 3-4(900m) 8(1200m)
Di, 12.11. 1:00 8(1200m)
Di, 12.11. 0:55 8(1200m)
Di, 12.11. 0:00 3(1200m) 5(2100m)
Mo, 11.11. 23:55 3-4(1200m)
Mo, 11.11. 23:00 8(1200m)
Mo, 11.11. 22:55 8(1200m)
Mo, 11.11. 22:00 4(900m) 5(1200m)
Ortszeit Luftdruck NN (hPa) Tendenz (hPa in 3 Std.)
Di, 12.11. 1:00 1001 - 2,6
Mo, 11.11. 19:00 1005 - 0,2
Mo, 11.11. 13:00 1006 - 0,8
Mo, 11.11. 7:00 1006 0,0
Mo, 11.11. 1:00 1005 + 0,4
So, 10.11. 19:00 1004 - 0,8
So, 10.11. 13:00 1007 - 1,3
So, 10.11. 7:00 1008 - 1,0
Ortszeit Luftdruck NN (hPa) Tendenz (hPa in 3 Std.)
Di, 12.11. 2:00 1000 - 3,1
Di, 12.11. 1:55 999 keine Meldung
Di, 12.11. 1:00 1001 - 2,6
Di, 12.11. 0:55 1001 keine Meldung
Di, 12.11. 0:00 1002 - 2,1
Mo, 11.11. 23:55 1001 keine Meldung
Mo, 11.11. 23:00 1003 - 1,7
Mo, 11.11. 22:55 1002 keine Meldung
Mo, 11.11. 22:00 1004 - 0,9
Ortszeit Schneehöhe (cm)
Di, 12.11. 1:00 -
Mo, 11.11. 19:00 -
Mo, 11.11. 13:00 -
Mo, 11.11. 7:00 0
Mo, 11.11. 1:00 -
So, 10.11. 19:00 -
So, 10.11. 13:00 -
So, 10.11. 7:00 -
Ortszeit Schneehöhe (cm)
Di, 12.11. 2:00 -
Di, 12.11. 1:55 -
Di, 12.11. 1:00 -
Di, 12.11. 0:55 -
Di, 12.11. 0:00 -
Mo, 11.11. 23:55 -
Mo, 11.11. 23:00 -
Mo, 11.11. 22:55 -
Mo, 11.11. 22:00 -
Link zu dieser Seite / Seite empfehlen

Das Wetter in ...